Time;durP1;ratioP1;P1;durP2;ratioP2;P2;SDS_P1;SDS_P2;PMS_P1;PMS_P2;Temp;Humidity;BMP_temperature;BMP_pressure;BME280_temperature;BME280_humidity;BME280_pressure;Samples;Min_cycle;Max_cycle;Signal;HPM_P1;HPM_P2
2023/03/29 00:00:43;;;;;;;3.17;1.63;;;;;;;9.92;58.80;100912.63;5053683;28;20801;-61
2023/03/29 00:03:11;;;;;;;4.53;2.07;;;;;;;10.00;58.67;100909.31;5052891;28;20222;-62
2023/03/29 00:05:40;;;;;;;3.37;1.43;;;;;;;10.03;58.57;100901.94;5054342;28;20207;-62
2023/03/29 00:08:13;;;;;;;3.63;1.67;;;;;;;10.12;58.66;100897.63;5055437;28;20238;-61
2023/03/29 00:10:41;;;;;;;4.53;2.23;;;;;;;10.04;59.09;100895.66;5052830;28;20218;-62
2023/03/29 00:13:09;;;;;;;5.30;2.10;;;;;;;9.98;59.48;100893.56;5050523;28;20216;-63
2023/03/29 00:15:36;;;;;;;5.20;1.63;;;;;;;9.96;59.42;100892.84;5051930;28;20230;-62
2023/03/29 00:18:05;;;;;;;5.10;2.03;;;;;;;10.03;59.50;100893.97;5052843;28;21026;-64
2023/03/29 00:20:33;;;;;;;5.07;1.90;;;;;;;10.05;59.33;100900.00;5052261;28;20949;-64
2023/03/29 00:23:01;;;;;;;5.20;2.10;;;;;;;10.06;58.87;100896.38;5050220;28;20783;-63
2023/03/29 00:25:28;;;;;;;3.63;1.63;;;;;;;10.05;58.72;100896.50;5051323;28;20218;-64
2023/03/29 00:27:56;;;;;;;5.27;2.07;;;;;;;10.07;58.42;100883.97;5050857;28;20229;-61
2023/03/29 00:30:24;;;;;;;5.10;1.90;;;;;;;10.08;58.00;100891.78;5052126;28;20207;-62
2023/03/29 00:32:51;;;;;;;6.63;2.33;;;;;;;10.14;57.54;100888.59;5051260;28;20678;-63
2023/03/29 00:35:20;;;;;;;6.33;1.90;;;;;;;10.05;57.54;100884.09;5051393;28;21119;-62
2023/03/29 00:37:49;;;;;;;5.17;2.07;;;;;;;9.94;57.83;100886.84;5050262;28;20207;-61
2023/03/29 00:40:17;;;;;;;5.40;2.37;;;;;;;10.03;57.64;100883.38;5050671;28;20246;-63
2023/03/29 00:42:45;;;;;;;4.43;1.90;;;;;;;10.13;57.38;100881.59;5050938;28;20879;-63
2023/03/29 00:45:18;;;;;;;4.43;1.97;;;;;;;10.19;57.67;100877.63;5051017;28;20218;-61
2023/03/29 00:47:50;;;;;;;3.43;1.70;;;;;;;10.15;58.09;100884.97;5050087;28;20345;-62
2023/03/29 00:50:24;;;;;;;3.43;1.90;;;;;;;10.13;57.55;100881.59;5052950;28;20234;-64
2023/03/29 00:52:58;;;;;;;4.73;2.50;;;;;;;10.10;57.52;100871.28;5049949;28;20199;-63
2023/03/29 00:55:29;;;;;;;3.70;2.10;;;;;;;10.12;57.45;100861.38;5049831;28;20718;-63
2023/03/29 00:57:59;;;;;;;5.77;2.47;;;;;;;10.08;57.61;100864.44;5054735;28;20222;-62
2023/03/29 01:00:34;;;;;;;5.80;2.50;;;;;;;10.02;58.23;100868.47;5053330;28;20501;-67
2023/03/29 01:03:07;;;;;;;5.17;2.73;;;;;;;10.03;57.99;100872.78;5052818;28;20240;-61
2023/03/29 01:05:40;;;;;;;4.37;1.83;;;;;;;10.01;57.91;100874.75;5051891;28;20206;-62
2023/03/29 01:08:16;;;;;;;4.97;2.33;;;;;;;9.94;58.15;100868.28;5051230;28;20235;-64
2023/03/29 01:10:50;;;;;;;6.13;2.67;;;;;;;9.91;58.51;100852.69;5049533;28;20219;-62
2023/03/29 01:13:25;;;;;;;4.53;2.50;;;;;;;9.90;58.82;100851.00;5049066;28;20218;-63
2023/03/29 01:15:54;;;;;;;4.70;2.13;;;;;;;9.78;59.23;100847.59;5049644;28;20228;-63
2023/03/29 01:18:22;;;;;;;5.77;2.57;;;;;;;9.77;59.39;100855.69;5051941;28;20677;-63
2023/03/29 01:21:07;;;;;;;4.63;2.40;;;;;;;9.84;59.49;100848.06;5050890;28;20208;-62
2023/03/29 01:23:51;;;;;;;6.47;2.67;;;;;;;9.81;59.38;100846.50;5050497;28;20762;-62
2023/03/29 01:26:25;;;;;;;4.97;2.37;;;;;;;9.75;59.58;100857.66;5050113;28;20207;-63
2023/03/29 01:28:59;;;;;;;4.20;2.50;;;;;;;9.68;59.87;100846.72;5048854;28;21183;-63
2023/03/29 01:31:30;;;;;;;5.07;2.40;;;;;;;9.70;59.97;100843.94;5049603;28;20214;-63
2023/03/29 01:34:02;;;;;;;8.53;3.47;;;;;;;9.69;59.81;100837.81;5049720;28;20457;-61
2023/03/29 01:36:37;;;;;;;5.87;2.70;;;;;;;9.63;59.90;100837.50;5049466;28;20228;-63
2023/03/29 01:39:06;;;;;;;7.60;2.97;;;;;;;9.58;60.04;100839.75;5041919;28;20245;-62
2023/03/29 01:41:44;;;;;;;10.23;3.40;;;;;;;9.57;60.20;100838.06;5030449;28;20235;-61
2023/03/29 01:44:18;;;;;;;6.13;3.43;;;;;;;9.62;59.95;100834.03;5029574;28;20261;-61
2023/03/29 01:46:47;;;;;;;8.27;3.30;;;;;;;9.74;59.55;100829.47;5031467;28;20207;-61
2023/03/29 01:49:24;;;;;;;6.47;3.00;;;;;;;9.73;59.93;100823.34;5028694;28;20286;-61
2023/03/29 01:51:58;;;;;;;7.77;3.23;;;;;;;9.71;59.45;100819.16;5028763;28;20669;-61
2023/03/29 01:54:30;;;;;;;6.47;3.03;;;;;;;9.74;59.56;100816.25;5031833;28;20214;-61
2023/03/29 01:57:02;;;;;;;6.80;3.60;;;;;;;9.80;59.45;100818.34;5028536;28;21017;-63
2023/03/29 01:59:36;;;;;;;7.20;3.63;;;;;;;9.81;59.40;100818.22;5030954;28;20368;-62
2023/03/29 02:02:10;;;;;;;5.90;2.93;;;;;;;9.81;59.64;100809.44;5030021;28;20212;-60
2023/03/29 02:04:43;;;;;;;8.47;3.33;;;;;;;9.84;59.51;100819.75;5029174;28;20239;-60
2023/03/29 02:07:12;;;;;;;4.80;2.97;;;;;;;9.88;59.44;100813.22;5030117;28;20203;-62
2023/03/29 02:09:41;;;;;;;7.23;2.70;;;;;;;9.87;59.62;100815.97;5028550;28;20239;-62
2023/03/29 02:12:10;;;;;;;7.10;2.63;;;;;;;9.77;59.52;100795.59;5028483;28;20215;-62
2023/03/29 02:14:39;;;;;;;5.93;2.80;;;;;;;9.72;59.77;100786.41;5029751;28;20208;-63
2023/03/29 02:17:18;;;;;;;5.20;2.80;;;;;;;9.66;59.39;100790.44;5029004;28;20212;-61
2023/03/29 02:19:49;;;;;;;4.40;2.40;;;;;;;9.54;59.75;100785.38;5027858;28;20207;-62
2023/03/29 02:22:22;;;;;;;4.40;2.60;;;;;;;9.64;59.35;100786.25;5030403;28;20731;-61
2023/03/29 02:24:57;;;;;;;3.80;2.20;;;;;;;9.73;59.01;100777.50;5028526;28;20319;-62
2023/03/29 02:27:26;;;;;;;4.63;2.43;;;;;;;9.69;59.30;100776.91;5030769;28;20653;-62
2023/03/29 02:29:56;;;;;;;6.57;2.70;;;;;;;9.64;59.44;100778.28;5031952;28;20869;-63
2023/03/29 02:32:30;;;;;;;6.80;2.70;;;;;;;9.56;59.70;100773.69;5029040;28;20669;-63
2023/03/29 02:35:05;;;;;;;9.37;2.80;;;;;;;9.53;59.69;100771.28;5030864;28;20265;-61
2023/03/29 02:37:39;;;;;;;6.47;2.87;;;;;;;9.53;60.07;100763.34;5031220;28;20230;-61
2023/03/29 02:40:11;;;;;;;7.70;3.13;;;;;;;9.49;60.58;100761.94;5045745;28;20249;-62
2023/03/29 02:42:40;;;;;;;5.43;2.93;;;;;;;9.43;61.25;100765.94;5049318;28;20300;-61
2023/03/29 02:45:12;;;;;;;7.10;2.90;;;;;;;9.52;61.23;100758.19;5049739;28;20672;-63
2023/03/29 02:47:45;;;;;;;6.03;3.37;;;;;;;9.57;61.13;100745.38;5053097;28;20220;-62
2023/03/29 02:50:14;;;;;;;6.17;2.83;;;;;;;9.47;61.31;100749.81;5048042;28;20305;-64
2023/03/29 02:52:52;;;;;;;7.13;3.33;;;;;;;9.47;62.08;100757.75;5050539;28;20208;-61
2023/03/29 02:55:24;;;;;;;8.43;3.20;;;;;;;9.50;61.91;100758.31;5053151;28;20205;-62
2023/03/29 02:57:52;;;;;;;7.23;2.93;;;;;;;9.56;61.47;100741.06;5048560;28;20211;-61
2023/03/29 03:00:22;;;;;;;6.07;3.07;;;;;;;9.65;61.03;100742.91;5049542;28;20216;-62
2023/03/29 03:02:50;;;;;;;9.47;3.43;;;;;;;9.64;61.48;100749.16;5048576;28;20234;-61
2023/03/29 03:05:20;;;;;;;6.67;2.80;;;;;;;9.66;61.07;100742.78;5046917;28;20317;-62
2023/03/29 03:07:49;;;;;;;7.00;2.87;;;;;;;9.69;60.76;100747.78;5047819;28;20215;-62
2023/03/29 03:10:18;;;;;;;5.57;2.83;;;;;;;9.63;60.50;100736.91;5046861;28;20212;-62
2023/03/29 03:12:45;;;;;;;5.60;2.67;;;;;;;9.48;60.85;100744.38;5046328;28;20221;-62
2023/03/29 03:15:13;;;;;;;5.50;2.80;;;;;;;9.48;61.09;100740.91;5046441;28;20214;-61
2023/03/29 03:17:43;;;;;;;5.53;2.87;;;;;;;9.50;61.04;100734.47;5051597;28;20219;-59
2023/03/29 03:20:12;;;;;;;6.10;3.00;;;;;;;9.53;60.94;100742.16;5053328;28;20639;-59
2023/03/29 03:22:42;;;;;;;8.77;2.80;;;;;;;9.58;60.71;100739.13;5054817;28;20870;-60
2023/03/29 03:25:10;;;;;;;6.77;3.20;;;;;;;9.64;61.18;100730.63;5054014;28;20247;-60
2023/03/29 03:27:41;;;;;;;6.00;2.50;;;;;;;9.75;60.58;100738.47;5053094;28;20207;-60
2023/03/29 03:30:13;;;;;;;5.43;2.90;;;;;;;9.68;60.45;100729.38;5051166;28;20215;-59
2023/03/29 03:32:43;;;;;;;6.10;2.80;;;;;;;9.62;60.72;100725.47;5050899;28;20218;-58
2023/03/29 03:35:14;;;;;;;7.50;3.10;;;;;;;9.52;61.10;100729.91;5050563;28;20299;-59
2023/03/29 03:37:41;;;;;;;4.70;2.73;;;;;;;9.43;61.69;100736.00;5051395;28;20207;-59
2023/03/29 03:40:12;;;;;;;6.17;3.03;;;;;;;9.48;61.82;100735.59;5052018;28;20971;-59
2023/03/29 03:42:40;;;;;;;5.67;3.03;;;;;;;9.51;61.69;100730.03;5050116;28;20230;-59
2023/03/29 03:45:09;;;;;;;7.23;3.27;;;;;;;9.54;61.69;100721.81;5053570;28;20736;-59
2023/03/29 03:47:37;;;;;;;5.73;2.50;;;;;;;9.53;61.97;100728.09;5049599;28;20292;-60
2023/03/29 03:50:08;;;;;;;10.03;2.90;;;;;;;9.54;61.76;100721.81;5052224;28;20220;-59
2023/03/29 03:52:38;;;;;;;5.97;3.23;;;;;;;9.46;62.22;100729.59;5050459;28;20207;-60
2023/03/29 03:55:08;;;;;;;6.00;3.10;;;;;;;9.42;62.04;100719.28;5053185;28;20209;-60
2023/03/29 03:57:37;;;;;;;7.37;2.87;;;;;;;9.36;62.18;100714.53;5052363;28;20207;-60
2023/03/29 04:00:17;;;;;;;5.70;3.63;;;;;;;9.33;62.20;100713.94;5054513;28;20208;-60
2023/03/29 04:02:46;;;;;;;5.57;2.80;;;;;;;9.22;62.68;100712.25;5054972;28;20613;-60
2023/03/29 04:05:16;;;;;;;7.27;3.17;;;;;;;9.13;62.74;100713.06;5056983;28;20237;-60
2023/03/29 04:07:43;;;;;;;4.60;2.50;;;;;;;9.09;62.83;100710.78;5057747;28;20219;-63
2023/03/29 04:10:14;;;;;;;6.27;2.77;;;;;;;9.09;62.78;100716.94;5057144;28;20233;-58
2023/03/29 04:12:42;;;;;;;9.23;2.80;;;;;;;8.95;63.25;100717.28;5057538;28;20210;-61
2023/03/29 04:15:10;;;;;;;8.27;3.30;;;;;;;8.91;63.57;100713.22;5057943;28;20242;-60
2023/03/29 04:17:38;;;;;;;8.10;3.47;;;;;;;8.92;63.46;100705.16;5058529;28;20215;-60
2023/03/29 04:20:10;;;;;;;4.43;2.80;;;;;;;8.91;63.28;100711.41;5058695;28;20215;-60
2023/03/29 04:22:40;;;;;;;7.87;2.87;;;;;;;8.83;63.63;100713.88;5055392;28;20203;-60
2023/03/29 04:25:09;;;;;;;5.03;2.50;;;;;;;8.76;63.74;100707.44;5056955;28;20200;-60
2023/03/29 04:27:36;;;;;;;6.10;2.97;;;;;;;8.67;64.02;100710.88;5058270;28;20210;-58
2023/03/29 04:30:06;;;;;;;6.17;2.60;;;;;;;8.66;64.13;100720.59;5058293;28;20305;-61
2023/03/29 04:32:34;;;;;;;6.83;3.00;;;;;;;8.70;63.94;100721.19;5056992;28;20215;-59
2023/03/29 04:35:03;;;;;;;9.27;4.00;;;;;;;8.69;63.71;100719.50;5058210;28;20217;-59
2023/03/29 04:37:31;;;;;;;6.07;3.17;;;;;;;8.71;63.79;100714.91;5059376;28;20866;-61
2023/03/29 04:40:00;;;;;;;7.00;3.70;;;;;;;8.77;63.43;100717.06;5058215;28;20238;-59
2023/03/29 04:42:28;;;;;;;7.40;3.23;;;;;;;8.72;63.49;100716.59;5060009;28;20255;-59
2023/03/29 04:44:56;;;;;;;4.77;2.97;;;;;;;8.64;63.85;100714.59;5059430;28;20636;-60
2023/03/29 04:47:23;;;;;;;13.00;2.83;;;;;;;8.69;63.59;100708.94;5056394;28;20226;-59
2023/03/29 04:49:51;;;;;;;4.77;3.07;;;;;;;8.70;63.71;100710.63;5055952;28;20538;-58
2023/03/29 04:52:19;;;;;;;5.63;2.87;;;;;;;8.77;63.52;100716.22;5055845;28;20231;-59
2023/03/29 04:54:50;;;;;;;5.00;2.13;;;;;;;8.72;63.55;100710.47;5056017;28;20601;-59
2023/03/29 04:57:19;;;;;;;5.77;2.70;;;;;;;8.70;63.49;100704.50;5058905;28;20210;-59
2023/03/29 04:59:47;;;;;;;5.67;2.60;;;;;;;8.61;63.85;100711.41;5055152;28;20651;-60
2023/03/29 05:02:18;;;;;;;5.60;2.60;;;;;;;8.52;64.39;100718.28;5058501;28;20212;-60
2023/03/29 05:04:46;;;;;;;7.17;2.60;;;;;;;8.50;64.40;100717.56;5057502;28;20577;-59
2023/03/29 05:07:16;;;;;;;5.97;2.87;;;;;;;8.48;64.67;100724.78;5057237;28;20217;-60
2023/03/29 05:09:44;;;;;;;7.10;2.53;;;;;;;8.47;64.92;100724.91;5056245;28;20685;-59
2023/03/29 05:12:12;;;;;;;7.77;3.47;;;;;;;8.45;64.79;100722.38;5056338;28;20213;-60
2023/03/29 05:14:41;;;;;;;4.17;2.43;;;;;;;8.44;65.12;100726.03;5058178;28;20661;-60
2023/03/29 05:17:08;;;;;;;6.17;2.80;;;;;;;8.50;64.62;100725.50;5055181;28;20208;-60
2023/03/29 05:19:37;;;;;;;6.57;2.93;;;;;;;8.48;64.79;100727.44;5058869;28;20221;-60
2023/03/29 05:22:05;;;;;;;6.47;3.03;;;;;;;8.59;64.35;100737.94;5058764;28;20363;-58
2023/03/29 05:24:33;;;;;;;5.87;2.73;;;;;;;8.62;63.95;100736.84;5055458;28;20234;-60
2023/03/29 05:27:01;;;;;;;4.67;2.60;;;;;;;8.57;63.96;100736.41;5056266;28;20278;-60
2023/03/29 05:29:31;;;;;;;5.27;2.67;;;;;;;8.58;64.13;100728.34;5055500;28;20210;-59
2023/03/29 05:32:00;;;;;;;7.93;3.23;;;;;;;8.59;63.87;100730.03;5056113;28;20223;-60
2023/03/29 05:34:28;;;;;;;6.83;3.47;;;;;;;8.64;63.92;100724.34;5056714;28;20229;-60
2023/03/29 05:36:58;;;;;;;6.57;2.70;;;;;;;8.63;63.87;100741.16;5057995;28;20694;-61
2023/03/29 05:39:25;;;;;;;6.47;2.53;;;;;;;8.67;63.52;100732.84;5056643;28;20245;-58
2023/03/29 05:41:53;;;;;;;5.37;2.73;;;;;;;8.68;63.59;100729.25;5057544;28;20570;-60
2023/03/29 05:44:21;;;;;;;5.93;2.70;;;;;;;8.70;63.58;100720.34;5058445;28;20364;-60
2023/03/29 05:46:49;;;;;;;14.30;3.70;;;;;;;8.79;63.18;100730.16;5059110;28;20214;-59
2023/03/29 05:49:18;;;;;;;8.50;3.23;;;;;;;8.85;63.28;100730.47;5055755;28;20300;-59
2023/03/29 05:51:46;;;;;;;5.80;2.87;;;;;;;8.81;63.24;100728.19;5056452;28;20671;-59
2023/03/29 05:54:13;;;;;;;9.97;3.10;;;;;;;8.79;63.37;100730.16;5057424;28;20224;-59
2023/03/29 05:56:41;;;;;;;8.73;3.13;;;;;;;8.87;63.11;100732.97;5055644;28;20293;-60
2023/03/29 05:59:09;;;;;;;16.13;3.50;;;;;;;8.91;63.16;100734.38;5057000;28;20301;-61
2023/03/29 06:01:38;;;;;;;10.93;3.13;;;;;;;8.94;63.00;100731.47;5058169;28;20219;-60
2023/03/29 06:04:06;;;;;;;23.93;3.57;;;;;;;9.05;62.89;100732.25;5057200;28;20228;-59
2023/03/29 06:06:35;;;;;;;7.60;3.17;;;;;;;9.15;62.73;100732.25;5056401;28;20280;-60
2023/03/29 06:09:04;;;;;;;6.60;3.27;;;;;;;9.23;62.18;100739.56;5054186;28;20242;-60
2023/03/29 06:11:32;;;;;;;11.80;3.47;;;;;;;9.23;62.21;100740.41;5055878;28;20210;-60
2023/03/29 06:13:59;;;;;;;6.30;3.23;;;;;;;9.28;62.60;100742.63;5059778;28;20218;-60
2023/03/29 06:16:28;;;;;;;8.13;3.10;;;;;;;9.33;62.64;100741.25;5057313;28;20227;-61
2023/03/29 06:18:56;;;;;;;4.80;2.83;;;;;;;9.42;62.30;100740.44;5057587;28;20264;-61
2023/03/29 06:21:25;;;;;;;6.77;2.77;;;;;;;9.52;62.21;100734.34;5054030;28;20234;-60
2023/03/29 06:23:54;;;;;;;5.90;3.23;;;;;;;9.60;61.52;100737.16;5058367;28;20330;-59
2023/03/29 06:26:22;;;;;;;5.83;3.23;;;;;;;9.63;61.44;100740.38;5056444;28;20642;-60
2023/03/29 06:28:50;;;;;;;4.20;2.57;;;;;;;9.67;61.41;100743.63;5053830;28;20242;-60
2023/03/29 06:31:19;;;;;;;6.17;2.97;;;;;;;9.70;61.44;100740.66;5055506;28;20281;-60
2023/03/29 06:33:48;;;;;;;6.07;3.10;;;;;;;9.76;61.64;100738.31;5055944;28;20211;-61
2023/03/29 06:36:16;;;;;;;4.33;2.90;;;;;;;9.86;61.59;100740.97;5055680;28;20220;-59
2023/03/29 06:38:44;;;;;;;8.00;3.10;;;;;;;9.95;61.32;100740.16;5056738;28;20234;-58
2023/03/29 06:41:13;;;;;;;5.47;3.20;;;;;;;10.00;61.26;100739.75;5055327;28;20215;-59
2023/03/29 06:43:41;;;;;;;9.10;3.50;;;;;;;10.09;60.97;100744.22;5055992;28;20210;-60
2023/03/29 06:46:10;;;;;;;5.43;3.10;;;;;;;10.13;60.73;100745.63;5055074;28;20233;-59
2023/03/29 06:48:40;;;;;;;6.33;3.20;;;;;;;10.18;60.32;100754.88;5053519;28;20215;-60
2023/03/29 06:51:07;;;;;;;6.77;3.70;;;;;;;10.27;59.99;100757.66;5056503;28;20827;-60
2023/03/29 06:53:35;;;;;;;5.70;3.00;;;;;;;10.30;59.43;100757.38;5055900;28;20204;-60
2023/03/29 06:56:07;;;;;;;5.63;3.17;;;;;;;10.35;58.76;100749.84;5056770;28;20266;-60
2023/03/29 06:58:37;;;;;;;6.30;2.80;;;;;;;10.34;58.73;100743.72;5056961;28;20667;-59
2023/03/29 07:01:06;;;;;;;6.47;2.90;;;;;;;10.37;58.87;100748.75;5054235;28;20211;-59
2023/03/29 07:03:35;;;;;;;6.43;3.00;;;;;;;10.43;58.67;100752.63;5056575;28;20219;-63
2023/03/29 07:06:08;;;;;;;5.93;2.87;;;;;;;10.47;58.27;100754.00;5053597;28;22229;-59
2023/03/29 07:08:42;;;;;;;4.87;2.47;;;;;;;10.45;57.77;100750.69;5056222;28;20685;-59
2023/03/29 07:11:11;;;;;;;4.80;2.90;;;;;;;10.50;57.55;100759.06;5056537;28;20215;-60
2023/03/29 07:13:45;;;;;;;6.67;2.60;;;;;;;10.54;57.58;100745.38;5057349;28;20215;-60
2023/03/29 07:16:13;;;;;;;6.47;2.70;;;;;;;10.61;57.79;100744.81;5055071;28;20641;-60
2023/03/29 07:18:42;;;;;;;7.33;3.27;;;;;;;10.66;57.67;100747.84;5054299;28;20268;-60
2023/03/29 07:21:11;;;;;;;5.23;3.10;;;;;;;10.64;57.54;100744.53;5054403;28;20211;-60
2023/03/29 07:23:39;;;;;;;6.10;2.97;;;;;;;10.63;57.82;100746.34;5057224;28;20577;-60
2023/03/29 07:26:07;;;;;;;9.77;3.03;;;;;;;10.69;58.26;100753.72;5057533;28;20738;-59
2023/03/29 07:28:36;;;;;;;6.27;3.00;;;;;;;10.77;58.34;100760.97;5055234;28;20216;-60
2023/03/29 07:31:09;;;;;;;8.83;3.23;;;;;;;10.87;58.14;100756.50;5055840;28;20273;-59
2023/03/29 07:33:37;;;;;;;5.97;3.13;;;;;;;10.83;58.31;100760.41;5054260;28;20217;-59
2023/03/29 07:36:07;;;;;;;9.43;3.23;;;;;;;10.83;57.99;100755.09;5054905;28;20627;-60
2023/03/29 07:38:35;;;;;;;10.87;3.63;;;;;;;10.91;58.20;100748.09;5059209;28;20281;-60
2023/03/29 07:41:04;;;;;;;7.50;2.80;;;;;;;11.07;57.29;100754.63;5059560;28;20207;-60
2023/03/29 07:43:33;;;;;;;7.60;3.13;;;;;;;11.20;56.53;100763.94;5060142;28;20221;-59
2023/03/29 07:46:01;;;;;;;6.37;3.47;;;;;;;11.25;57.02;100760.84;5060450;28;22766;-60
2023/03/29 07:48:31;;;;;;;8.87;3.03;;;;;;;11.34;56.28;100759.16;5060664;28;20222;-60
2023/03/29 07:50:58;;;;;;;8.90;2.80;;;;;;;11.42;56.28;100759.25;5060283;28;20214;-60
2023/03/29 07:53:28;;;;;;;6.30;3.23;;;;;;;11.37;56.16;100757.03;5057990;28;20876;-59
2023/03/29 07:55:56;;;;;;;9.13;3.43;;;;;;;11.39;56.27;100764.84;5058442;28;20298;-59
2023/03/29 07:58:23;;;;;;;8.20;3.50;;;;;;;11.52;56.54;100763.50;5059268;28;20280;-60
2023/03/29 08:00:51;;;;;;;4.70;3.07;;;;;;;11.56;56.80;100764.91;5058825;28;20284;-60
2023/03/29 08:03:19;;;;;;;10.70;4.00;;;;;;;11.47;57.11;100767.59;5058399;28;20255;-60
2023/03/29 08:05:49;;;;;;;7.83;3.47;;;;;;;11.48;57.52;100772.78;5056122;28;20279;-60
2023/03/29 08:08:17;;;;;;;6.47;2.97;;;;;;;11.60;57.11;100763.63;5059935;28;20229;-59
2023/03/29 08:10:44;;;;;;;6.83;2.80;;;;;;;11.55;55.93;100759.72;5058952;28;20741;-59
2023/03/29 08:13:12;;;;;;;6.13;2.90;;;;;;;11.70;56.10;100758.25;5058557;28;20256;-61
2023/03/29 08:15:44;;;;;;;5.40;2.70;;;;;;;11.76;55.99;100765.69;5060057;28;20664;-60
2023/03/29 08:18:12;;;;;;;7.47;2.97;;;;;;;11.86;55.99;100757.66;5057095;28;20238;-60
2023/03/29 08:20:41;;;;;;;6.00;3.20;;;;;;;11.90;55.88;100761.66;5056800;28;20652;-59
2023/03/29 08:23:10;;;;;;;6.03;3.13;;;;;;;11.99;55.96;100752.81;5058459;28;20697;-59
2023/03/29 08:25:38;;;;;;;8.23;2.87;;;;;;;12.03;55.93;100768.31;5059225;28;20221;-59
2023/03/29 08:28:05;;;;;;;5.40;2.57;;;;;;;12.02;55.99;100760.47;5059233;28;20210;-59
2023/03/29 08:30:33;;;;;;;4.07;2.20;;;;;;;12.03;55.66;100759.50;5058266;28;20655;-59
2023/03/29 08:33:01;;;;;;;5.60;2.20;;;;;;;12.05;55.57;100761.00;5060515;28;20687;-60
2023/03/29 08:35:31;;;;;;;5.43;2.37;;;;;;;12.19;55.37;100751.69;5057219;28;20303;-60
2023/03/29 08:37:59;;;;;;;7.60;2.50;;;;;;;12.32;54.76;100751.28;5058772;28;20326;-59
2023/03/29 08:40:29;;;;;;;4.77;2.83;;;;;;;12.36;55.25;100752.66;5039862;28;20574;-59
2023/03/29 08:43:12;;;;;;;7.17;2.63;;;;;;;12.38;55.42;100754.19;5037663;28;20224;-59
2023/03/29 08:45:48;;;;;;;6.43;2.40;;;;;;;12.37;54.89;100755.19;5040760;28;20216;-59
2023/03/29 08:48:27;;;;;;;7.97;2.70;;;;;;;12.44;54.77;100756.22;5036977;28;20204;-59
2023/03/29 08:51:00;;;;;;;9.33;2.60;;;;;;;12.51;55.14;100750.28;5038512;28;20204;-59
2023/03/29 08:53:33;;;;;;;5.63;2.70;;;;;;;12.49;55.52;100752.28;5038403;28;20212;-60
2023/03/29 08:56:08;;;;;;;7.90;2.90;;;;;;;12.54;55.42;100758.81;5039559;28;20302;-59
2023/03/29 08:58:38;;;;;;;8.40;3.33;;;;;;;12.53;55.39;100758.97;5035199;28;20208;-60
2023/03/29 09:01:10;;;;;;;7.37;2.60;;;;;;;12.50;55.06;100761.91;5037861;28;20217;-60
2023/03/29 09:03:42;;;;;;;10.50;2.50;;;;;;;12.53;55.15;100762.47;5039038;28;20215;-59
2023/03/29 09:06:12;;;;;;;6.13;2.37;;;;;;;12.49;54.84;100757.59;5040090;28;20306;-59
2023/03/29 09:08:43;;;;;;;7.50;2.70;;;;;;;12.40;55.21;100754.84;5040264;28;20600;-59
2023/03/29 09:11:26;;;;;;;10.37;2.50;;;;;;;12.36;55.63;100748.19;5037627;28;20211;-60
2023/03/29 09:14:05;;;;;;;5.13;2.57;;;;;;;12.46;55.03;100749.94;5035886;28;20201;-61
2023/03/29 09:16:37;;;;;;;6.07;2.40;;;;;;;12.41;55.39;100751.22;5036050;28;20656;-62
2023/03/29 09:19:16;;;;;;;5.63;2.67;;;;;;;12.50;55.48;100759.25;5036701;28;20392;-60
2023/03/29 09:21:50;;;;;;;6.53;2.80;;;;;;;12.61;55.02;100751.88;5037058;28;20334;-59
2023/03/29 09:24:41;;;;;;;5.77;2.47;;;;;;;12.59;55.56;100755.66;5034595;28;20287;-60
2023/03/29 09:27:14;;;;;;;9.07;3.10;;;;;;;12.66;55.74;100757.59;5034318;28;20231;-60
2023/03/29 09:29:56;;;;;;;8.37;2.87;;;;;;;12.75;55.61;100763.81;5037024;28;20326;-60
2023/03/29 09:32:30;;;;;;;9.20;2.70;;;;;;;12.97;55.31;100759.78;5034278;28;20770;-58
2023/03/29 09:35:13;;;;;;;7.50;3.40;;;;;;;13.07;55.46;100756.03;5038350;28;20204;-59
2023/03/29 09:37:41;;;;;;;4.60;2.90;;;;;;;13.20;54.78;100747.63;5034092;28;20212;-59
2023/03/29 09:40:14;;;;;;;5.83;2.93;;;;;;;13.41;54.60;100749.91;5048414;28;20567;-61
2023/03/29 09:42:44;;;;;;;5.07;2.60;;;;;;;13.83;53.25;100745.41;5057946;28;20204;-60
2023/03/29 09:45:13;;;;;;;7.47;3.27;;;;;;;14.30;52.57;100737.66;5056572;28;20685;-60
2023/03/29 09:47:45;;;;;;;5.47;2.63;;;;;;;14.86;51.15;100736.00;5056016;28;20239;-59
2023/03/29 09:50:18;;;;;;;5.73;2.60;;;;;;;14.99;50.67;100732.81;5056784;28;20317;-59
2023/03/29 09:52:57;;;;;;;6.77;2.93;;;;;;;14.98;50.32;100747.16;5056444;28;20252;-59
2023/03/29 09:55:28;;;;;;;60.13;6.80;;;;;;;14.83;50.35;100744.34;5058006;28;20724;-60
2023/03/29 09:58:00;;;;;;;7.07;2.70;;;;;;;14.96;51.03;100743.81;5055437;28;20218;-59
2023/03/29 10:00:28;;;;;;;7.47;3.27;;;;;;;15.04;50.80;100733.94;5056144;28;20214;-59
2023/03/29 10:02:58;;;;;;;10.80;3.53;;;;;;;15.11;50.63;100742.13;5056456;28;20222;-58
2023/03/29 10:05:31;;;;;;;6.70;3.30;;;;;;;15.15;50.44;100731.94;5055570;28;20305;-59
2023/03/29 10:08:01;;;;;;;6.20;3.20;;;;;;;15.25;50.38;100727.22;5056305;28;20588;-58
2023/03/29 10:10:31;;;;;;;6.93;3.13;;;;;;;15.62;49.68;100731.97;5057702;28;20208;-60
2023/03/29 10:13:05;;;;;;;6.40;3.00;;;;;;;16.06;48.61;100724.19;5057608;28;20571;-60
2023/03/29 10:15:33;;;;;;;7.40;2.80;;;;;;;16.08;48.17;100725.69;5054042;28;20653;-60
2023/03/29 10:18:03;;;;;;;7.83;2.67;;;;;;;16.36;47.77;100715.25;5053551;28;20203;-59
2023/03/29 10:20:31;;;;;;;9.37;3.37;;;;;;;16.97;46.33;100715.25;5055933;28;20663;-61
2023/03/29 10:22:59;;;;;;;7.70;3.10;;;;;;;17.24;46.00;100707.38;5055930;28;20243;-59
2023/03/29 10:25:30;;;;;;;7.03;2.63;;;;;;;17.05;46.05;100707.13;5056662;28;20204;-59
2023/03/29 10:28:06;;;;;;;5.20;2.57;;;;;;;16.97;46.38;100707.22;5056406;28;20697;-60
2023/03/29 10:30:37;;;;;;;4.90;2.53;;;;;;;16.99;46.06;100702.47;5057422;28;20222;-60
2023/03/29 10:33:07;;;;;;;7.30;2.37;;;;;;;16.73;46.92;100701.06;5057825;28;20218;-61
2023/03/29 10:35:40;;;;;;;5.87;2.37;;;;;;;16.47;47.08;100700.63;5055856;28;20920;-60
2023/03/29 10:38:12;;;;;;;11.93;2.60;;;;;;;16.26;47.63;100698.63;5055893;28;20607;-60
2023/03/29 10:40:43;;;;;;;5.83;2.73;;;;;;;16.65;47.10;100695.78;5053582;28;20246;-59
2023/03/29 10:43:14;;;;;;;6.63;2.67;;;;;;;17.71;45.64;100686.53;5054672;28;20217;-60
2023/03/29 10:45:43;;;;;;;5.43;2.67;;;;;;;18.46;43.73;100692.25;5056332;28;20207;-58
2023/03/29 10:48:14;;;;;;;5.30;2.43;;;;;;;18.85;42.60;100685.53;5055114;28;20220;-60
2023/03/29 10:50:42;;;;;;;5.07;2.43;;;;;;;18.39;43.11;100680.59;5057117;28;20226;-60
2023/03/29 10:53:23;;;;;;;7.03;2.77;;;;;;;18.12;44.29;100676.84;5055179;28;20207;-60
2023/03/29 10:56:06;;;;;;;7.00;2.67;;;;;;;17.77;44.67;100680.41;5057280;28;20210;-60
2023/03/29 10:58:56;;;;;;;6.23;2.87;;;;;;;17.76;44.68;100674.25;5053175;28;20220;-60
2023/03/29 11:01:33;;;;;;;8.63;3.10;;;;;;;17.83;45.07;100677.00;5057162;28;20676;-59
2023/03/29 11:04:14;;;;;;;5.83;2.60;;;;;;;18.41;43.52;100663.28;5058406;28;20265;-60
2023/03/29 11:06:52;;;;;;;5.80;2.70;;;;;;;19.03;42.25;100677.78;5059586;28;20218;-60
2023/03/29 11:09:38;;;;;;;6.47;2.70;;;;;;;19.10;41.85;100673.28;5055134;28;20905;-60
2023/03/29 11:12:14;;;;;;;5.17;2.47;;;;;;;19.04;41.96;100669.53;5053640;28;20235;-61
2023/03/29 11:15:00;;;;;;;8.50;2.50;;;;;;;18.97;42.39;100674.06;5054649;28;20218;-61
2023/03/29 11:17:41;;;;;;;7.23;2.70;;;;;;;19.10;41.88;100673.28;5054431;28;20206;-59
2023/03/29 11:20:25;;;;;;;5.43;2.90;;;;;;;18.82;42.94;100673.34;5055146;28;20211;-61
2023/03/29 11:22:59;;;;;;;5.37;2.73;;;;;;;19.64;41.32;100667.97;5054740;28;20214;-60
2023/03/29 11:25:42;;;;;;;4.13;2.37;;;;;;;20.01;39.97;100671.16;5054418;28;20211;-61
2023/03/29 11:28:19;;;;;;;3.80;2.40;;;;;;;19.52;40.75;100673.13;5054075;28;20699;-61
2023/03/29 11:30:55;;;;;;;5.30;2.20;;;;;;;18.80;41.98;100683.44;5057168;28;20755;-59
2023/03/29 11:33:36;;;;;;;7.17;2.27;;;;;;;18.60;42.82;100683.28;5054893;28;20257;-59
2023/03/29 11:36:15;;;;;;;4.07;2.43;;;;;;;18.25;43.43;100668.94;5054918;28;20239;-59
2023/03/29 11:38:54;;;;;;;8.23;2.47;;;;;;;17.92;44.29;100667.78;5055198;28;20309;-61
2023/03/29 11:41:26;;;;;;;4.30;2.27;;;;;;;17.58;45.07;100666.59;5054640;28;20279;-60
2023/03/29 11:44:00;;;;;;;5.47;2.67;;;;;;;17.42;45.73;100668.63;5056654;28;20730;-58
2023/03/29 11:46:32;;;;;;;5.00;2.80;;;;;;;17.45;45.22;100666.41;5054215;28;20676;-59